Terminal Aerodrome Forecast
Issued by NWS

Home | Current Version | Previous Version | Text Only | Print | Product List | Glossary On
Versions: 1 2 3 4 5 6 7 8 9 10 11 12 13 14 15 16 17 18 19 20
000
FTUS45 KBOI 230520
TAFBKE
TAF
KBKE 230520Z 2306/2406 31008KT P6SM SCT080
     FM231200 VRB04KT P6SM VCFG FEW006
     FM231700 VRB05KT P6SM SKC
     FM240100 12008KT P6SM BKN150=

USA.gov is the U.S. government's official web portal to all federal, state and local government web resources and services.